createdAt,value
2023-05-28T00:03:53.793Z,101424.53
2023-05-28T00:08:55.474Z,101429.91
2023-05-28T00:13:56.961Z,101433.63
2023-05-28T00:18:58.405Z,101425.00
2023-05-28T00:24:01.155Z,101424.59
2023-05-28T00:29:02.874Z,101419.06
2023-05-28T00:34:04.324Z,101413.75
2023-05-28T00:39:06.068Z,101411.50
2023-05-28T00:44:07.794Z,101407.63
2023-05-28T00:49:11.386Z,101402.88
2023-05-28T00:54:12.828Z,101404.97
2023-05-28T00:59:14.374Z,101406.00
2023-05-28T01:04:17.013Z,101402.50
2023-05-28T01:09:18.813Z,101401.66
2023-05-28T01:14:21.402Z,101393.00
2023-05-28T01:19:23.905Z,101391.16
2023-05-28T01:24:26.267Z,101390.72
2023-05-28T01:29:27.903Z,101389.25
2023-05-28T01:34:29.792Z,101392.19
2023-05-28T01:39:36.053Z,101395.47
2023-05-28T01:44:38.316Z,101393.00
2023-05-28T01:49:40.315Z,101398.38
2023-05-28T01:54:41.969Z,101401.66
2023-05-28T01:59:43.760Z,101388.09
2023-05-28T02:04:45.350Z,101391.38
2023-05-28T02:09:47.038Z,101386.84
2023-05-28T02:14:50.085Z,101377.38
2023-05-28T02:19:51.646Z,101378.44
2023-05-28T02:24:53.167Z,101372.47
2023-05-28T02:29:55.188Z,101377.59
2023-05-28T02:34:56.668Z,101371.00
2023-05-28T02:39:58.329Z,101372.66
2023-05-28T02:45:00.171Z,101372.00
2023-05-28T02:50:02.412Z,101366.22
2023-05-28T02:55:04.228Z,101375.22
2023-05-28T03:00:06.402Z,101374.63
2023-05-28T03:05:08.096Z,101375.34
2023-05-28T03:10:10.136Z,101381.31
2023-05-28T03:15:11.847Z,101379.88
2023-05-28T03:20:13.615Z,101376.00
2023-05-28T03:25:15.367Z,101377.59
2023-05-28T03:30:16.829Z,101369.38
2023-05-28T03:35:18.399Z,101372.47
2023-05-28T03:40:19.825Z,101369.94
2023-05-28T03:45:22.664Z,101372.41
2023-05-28T03:50:24.781Z,101368.88
2023-05-28T03:55:29.161Z,101381.78
2023-05-28T04:00:30.649Z,101367.59
2023-05-28T04:05:32.191Z,101370.06
2023-05-28T04:10:33.658Z,101372.78
2023-05-28T04:15:35.298Z,101364.56
2023-05-28T04:20:36.985Z,101374.91
2023-05-28T04:25:38.577Z,101376.91
2023-05-28T04:30:40.042Z,101372.44
2023-05-28T04:35:41.639Z,101381.72
2023-05-28T04:40:43.291Z,101388.75
2023-05-28T04:45:44.784Z,101397.22
2023-05-28T04:50:46.493Z,101400.75
2023-05-28T04:55:48.013Z,101403.28
2023-05-28T05:00:49.692Z,101409.69
2023-05-28T05:05:51.244Z,101414.84
2023-05-28T05:10:52.881Z,101418.75
2023-05-28T05:15:54.548Z,101430.25
2023-05-28T05:20:56.283Z,101430.47
2023-05-28T05:25:57.789Z,101435.13
2023-05-28T05:30:59.503Z,101428.09
2023-05-28T05:36:10.077Z,101422.09
2023-05-28T05:41:11.798Z,101422.09
2023-05-28T05:46:13.943Z,101432.94
2023-05-28T05:51:15.813Z,101428.31
2023-05-28T05:57:30.054Z,101434.63
2023-05-28T06:02:19.851Z,101426.28
2023-05-28T06:07:23.335Z,101431.28
2023-05-28T06:12:40.521Z,101422.03
2023-05-28T06:17:56.478Z,101423.28
2023-05-28T06:22:58.130Z,101430.53
2023-05-28T06:33:36.518Z,101454.50
2023-05-28T06:38:38.157Z,101438.91
2023-05-28T06:43:39.607Z,101436.81
2023-05-28T06:48:41.546Z,101439.91
2023-05-28T06:53:43.329Z,101440.97
2023-05-28T06:58:44.976Z,101448.97
2023-05-28T07:03:46.838Z,101450.78
2023-05-28T07:08:48.488Z,101444.75
2023-05-28T07:13:50.002Z,101446.09
2023-05-28T07:18:51.639Z,101454.44
2023-05-28T07:25:02.312Z,101451.47
2023-05-28T07:30:15.085Z,101455.69
2023-05-28T07:41:21.647Z,101452.00
2023-05-28T07:46:34.824Z,101455.53
2023-05-28T07:51:42.603Z,101443.94
2023-05-28T07:56:44.543Z,101447.03
2023-05-28T08:01:46.170Z,101440.31
2023-05-28T08:06:48.348Z,101434.47
2023-05-28T08:11:50.632Z,101443.00
2023-05-28T08:16:52.379Z,101430.66
2023-05-28T08:21:54.789Z,101429.50
2023-05-28T08:26:56.448Z,101427.81
2023-05-28T08:31:58.080Z,101425.34
2023-05-28T08:37:00.056Z,101417.50
2023-05-28T08:42:01.969Z,101412.53
2023-05-28T08:47:10.110Z,101412.56
2023-05-28T08:52:13.331Z,101401.41
2023-05-28T08:57:16.766Z,101398.38
2023-05-28T09:02:18.685Z,101398.53
2023-05-28T09:07:20.283Z,101389.56
2023-05-28T09:12:23.209Z,101386.00
2023-05-28T09:17:37.919Z,101382.16
2023-05-28T09:22:40.072Z,101373.81
2023-05-28T09:27:44.547Z,101380.56
2023-05-28T09:32:46.347Z,101376.88
2023-05-28T09:37:59.712Z,101371.03
2023-05-28T09:43:10.239Z,101362.81
2023-05-28T09:48:13.218Z,101356.03
2023-05-28T09:53:16.392Z,101358.16
2023-05-28T09:58:22.252Z,101359.03
2023-05-28T10:03:29.504Z,101346.75
2023-05-28T10:08:37.258Z,101342.03
2023-05-28T10:13:39.088Z,101348.00
2023-05-28T10:18:56.806Z,101343.94
2023-05-28T10:24:10.555Z,101337.16
2023-05-28T10:29:12.331Z,101341.44
2023-05-28T10:34:17.886Z,101339.38
2023-05-28T10:39:19.965Z,101334.53
2023-05-28T10:44:25.090Z,101330.91
2023-05-28T10:49:26.739Z,101340.88
2023-05-28T10:54:30.967Z,101341.50
2023-05-28T10:59:48.955Z,101332.91
2023-05-28T11:05:01.123Z,101339.63
2023-05-28T11:10:05.283Z,101343.44
2023-05-28T11:15:09.704Z,101336.22
2023-05-28T11:20:25.673Z,101335.31
2023-05-28T11:25:27.529Z,101333.59
2023-05-28T11:30:29.695Z,101332.03
2023-05-28T11:35:31.217Z,101328.47
2023-05-28T11:40:36.745Z,101330.56
2023-05-28T11:45:41.371Z,101329.59
2023-05-28T11:50:49.216Z,101334.06
2023-05-28T12:01:22.387Z,101319.91
2023-05-28T12:06:32.555Z,101317.22
2023-05-28T12:11:41.914Z,101316.47
2023-05-28T12:16:45.419Z,101317.44
2023-05-28T12:21:47.903Z,101313.88
2023-05-28T12:26:49.698Z,101309.16
2023-05-28T12:32:00.552Z,101303.81
2023-05-28T12:37:02.083Z,101304.50
2023-05-28T12:42:04.272Z,101296.91
2023-05-28T12:47:06.043Z,101294.50
2023-05-28T12:52:07.617Z,101294.47
2023-05-28T12:57:09.558Z,101288.88
2023-05-28T13:02:11.419Z,101285.59
2023-05-28T13:07:13.026Z,101286.00
2023-05-28T13:12:14.739Z,101285.38
2023-05-28T13:17:16.457Z,101275.03
2023-05-28T13:22:18.237Z,101282.09
2023-05-28T13:27:19.975Z,101278.78
2023-05-28T13:32:22.278Z,101275.09
2023-05-28T13:37:24.057Z,101261.22
2023-05-28T13:42:25.764Z,101272.84
2023-05-28T13:47:27.385Z,101267.00
2023-05-28T13:52:29.201Z,101262.25
2023-05-28T13:57:30.696Z,101254.16
2023-05-28T14:02:32.279Z,101242.69
2023-05-28T14:07:34.236Z,101240.81
2023-05-28T14:12:36.287Z,101245.81
2023-05-28T14:17:40.376Z,101245.84
2023-05-28T14:22:48.453Z,101248.16
2023-05-28T14:27:59.780Z,101231.91
2023-05-28T14:33:12.097Z,101225.56
2023-05-28T14:38:13.616Z,101225.66
2023-05-28T14:43:17.571Z,101222.34
2023-05-28T14:48:20.435Z,101223.72
2023-05-28T15:15:22.778Z,101216.84
2023-05-28T15:21:14.031Z,101218.66
2023-05-28T15:32:17.578Z,101216.84
2023-05-28T15:34:35.594Z,101213.09
2023-05-28T15:40:52.585Z,101223.31
2023-05-28T15:55:28.778Z,101218.41
2023-05-28T15:55:46.693Z,101221.19
2023-05-28T15:56:13.833Z,101224.63
2023-05-28T16:00:35.701Z,101208.97
2023-05-28T16:05:37.818Z,101214.25
2023-05-28T16:10:40.069Z,101226.34
2023-05-28T16:15:42.091Z,101213.91
2023-05-28T16:20:47.363Z,101214.94
2023-05-28T16:25:54.560Z,101219.00
2023-05-28T16:30:58.199Z,101211.16
2023-05-28T16:36:05.108Z,101203.72
2023-05-28T16:41:12.789Z,101209.03
2023-05-28T16:46:21.183Z,101212.53
2023-05-28T16:51:38.134Z,101200.22
2023-05-28T16:56:42.436Z,101206.69
2023-05-28T17:07:19.319Z,101199.44
2023-05-28T17:13:02.414Z,101202.50
2023-05-28T17:18:02.122Z,101213.88
2023-05-28T17:23:08.354Z,101215.19
2023-05-28T17:28:10.471Z,101222.41
2023-05-28T17:33:12.228Z,101224.19
2023-05-28T17:38:21.644Z,101226.81
2023-05-28T17:43:48.506Z,101242.53
2023-05-28T17:48:50.509Z,101235.91
2023-05-28T17:55:17.533Z,101231.50
2023-05-28T18:05:18.595Z,101234.31
2023-05-28T18:10:21.114Z,101242.81
2023-05-28T18:15:32.717Z,101238.81
2023-05-28T18:20:34.970Z,101242.47
2023-05-28T18:25:37.080Z,101239.88
2023-05-28T18:30:42.521Z,101238.59
2023-05-28T18:36:11.664Z,101234.50
2023-05-28T18:41:14.133Z,101245.44
2023-05-28T18:46:15.851Z,101244.63
2023-05-28T18:51:22.868Z,101250.97
2023-05-28T18:56:26.686Z,101250.88
2023-05-28T19:01:38.946Z,101261.75
2023-05-28T19:07:01.157Z,101268.31
2023-05-28T19:12:05.936Z,101279.28
2023-05-28T19:17:07.512Z,101284.75
2023-05-28T19:22:09.288Z,101285.63
2023-05-28T19:27:10.883Z,101300.53
2023-05-28T19:32:12.551Z,101297.31
2023-05-28T19:37:15.354Z,101301.38
2023-05-28T19:42:17.172Z,101307.09
2023-05-28T19:47:22.075Z,101309.78
2023-05-28T19:52:23.697Z,101324.41
2023-05-28T19:57:27.504Z,101318.41
2023-05-28T20:02:29.177Z,101340.38
2023-05-28T20:07:33.946Z,101343.59
2023-05-28T20:12:35.757Z,101343.03
2023-05-28T20:17:37.662Z,101343.28
2023-05-28T20:22:45.452Z,101341.66
2023-05-28T20:27:47.620Z,101348.00
2023-05-28T20:32:49.314Z,101355.00
2023-05-28T20:37:51.612Z,101362.56
2023-05-28T20:42:53.294Z,101359.84
2023-05-28T20:47:54.912Z,101356.31
2023-05-28T20:52:58.466Z,101360.78
2023-05-28T20:58:00.820Z,101362.97
2023-05-28T21:03:02.579Z,101370.44
2023-05-28T21:08:04.890Z,101376.94
2023-05-28T21:13:10.120Z,101380.03
2023-05-28T21:18:11.697Z,101380.34
2023-05-28T21:23:13.596Z,101384.41
2023-05-28T21:28:15.314Z,101394.91
2023-05-28T21:33:16.778Z,101402.28
2023-05-28T21:38:18.399Z,101403.75
2023-05-28T21:43:21.314Z,101405.50
2023-05-28T21:48:26.290Z,101408.97
2023-05-28T21:53:28.344Z,101413.41
2023-05-28T21:58:30.244Z,101426.06
2023-05-28T22:03:32.261Z,101419.44
2023-05-28T22:08:34.938Z,101422.19
2023-05-28T22:13:36.616Z,101414.16
2023-05-28T22:18:42.516Z,101419.19
2023-05-28T22:23:44.324Z,101414.63
2023-05-28T22:28:57.814Z,101419.06
2023-05-28T22:34:04.506Z,101420.06
2023-05-28T22:39:06.048Z,101418.13
2023-05-28T22:44:07.942Z,101423.09
2023-05-28T22:49:09.642Z,101421.47
2023-05-28T22:54:16.598Z,101431.66
2023-05-28T22:59:18.254Z,101432.50
2023-05-28T23:04:19.900Z,101440.09
2023-05-28T23:09:21.799Z,101437.13
2023-05-28T23:14:23.465Z,101436.03
2023-05-28T23:19:25.163Z,101437.81
2023-05-28T23:24:26.771Z,101436.13
2023-05-28T23:29:28.602Z,101433.09
2023-05-28T23:34:30.110Z,101438.03
2023-05-28T23:39:31.729Z,101431.81
2023-05-28T23:44:33.218Z,101445.41
2023-05-28T23:49:34.856Z,101440.47
2023-05-28T23:54:39.713Z,101446.19
2023-05-28T23:59:41.301Z,101452.97
